Alma, Arkansas
Current Conditions -  °F | °C
As of 8:53 PM on Friday 31 Oct 2014 (Local Time) from KFSM Reporting Station
Clear Clear  
Wind Chill:   Ceiling: Unl
Heat Index:   Visibility: 10mi
Dew Point: -4°   Wind: 10mph
Humidity: 42%   Direction: 360°N
Pressure: 30.39"   Gusts: NA
Location:  35.48°N, 94.22°W
Report Text: KFSM 010153Z 36009KT 10SM CLR 08/M04 A3039 RMK AO2 SLP291 T00831039
Loading
Personal Weather Stations






























Interactive Weather Map New forecast layout! Learn more

10-Day Weather Forecast

Advertisements
Track Severe Weather on mobile